createdAt,value
2023-04-11T00:00:09.544Z,74.30
2023-04-11T00:01:11.702Z,74.20
2023-04-11T00:02:13.970Z,74.20
2023-04-11T00:03:16.991Z,74.10
2023-04-11T00:04:20.785Z,74.30
2023-04-11T00:05:23.350Z,74.30
2023-04-11T00:06:30.971Z,74.30
2023-04-11T00:07:33.457Z,74.50
2023-04-11T00:08:35.769Z,74.50
2023-04-11T00:09:37.910Z,74.60
2023-04-11T00:10:40.064Z,74.90
2023-04-11T00:11:43.643Z,75.20
2023-04-11T00:12:45.818Z,75.50
2023-04-11T00:13:48.718Z,75.60
2023-04-11T00:14:56.653Z,75.90
2023-04-11T00:15:59.352Z,76.10
2023-04-11T00:17:01.939Z,76.20
2023-04-11T00:18:04.380Z,76.30
2023-04-11T00:19:07.513Z,76.50
2023-04-11T00:20:12.005Z,76.50
2023-04-11T00:21:14.132Z,76.80
2023-04-11T00:22:17.997Z,76.90
2023-04-11T00:23:20.449Z,76.90
2023-04-11T00:24:23.144Z,76.90
2023-04-11T00:25:25.436Z,77.30
2023-04-11T00:26:27.908Z,77.70
2023-04-11T00:27:31.593Z,78.40
2023-04-11T00:28:33.853Z,79.00
2023-04-11T00:29:37.019Z,79.40
2023-04-11T00:30:39.301Z,79.80
2023-04-11T00:31:41.700Z,80.00
2023-04-11T00:32:46.700Z,80.10
2023-04-11T00:33:48.880Z,80.40
2023-04-11T00:34:51.493Z,80.80
2023-04-11T00:35:53.660Z,81.10
2023-04-11T00:36:56.023Z,81.30
2023-04-11T00:37:58.719Z,81.50
2023-04-11T00:39:04.062Z,81.60
2023-04-11T00:40:07.787Z,81.80
2023-04-11T00:41:11.593Z,82.00
2023-04-11T00:42:13.699Z,82.00
2023-04-11T00:43:17.162Z,82.10
2023-04-11T00:44:19.293Z,82.40
2023-04-11T00:45:21.637Z,82.70
2023-04-11T00:46:25.133Z,83.40
2023-04-11T00:47:27.581Z,84.00
2023-04-11T00:48:30.558Z,84.40
2023-04-11T00:49:33.133Z,84.80
2023-04-11T00:50:42.369Z,85.00
2023-04-11T00:51:44.522Z,86.20
2023-04-11T00:52:48.786Z,85.90
2023-04-11T00:53:50.906Z,86.50
2023-04-11T00:54:53.120Z,87.00
2023-04-11T00:55:55.304Z,87.40
2023-04-11T00:56:59.636Z,87.80
2023-04-11T00:58:02.427Z,88.30
2023-04-11T00:59:06.083Z,88.60
2023-04-11T01:00:12.055Z,88.90
2023-04-11T01:01:16.719Z,89.20
2023-04-11T01:02:19.313Z,89.50
2023-04-11T01:03:22.917Z,89.70
2023-04-11T01:04:26.285Z,90.00
2023-04-11T01:05:29.960Z,90.10
2023-04-11T01:06:33.703Z,90.20
2023-04-11T01:07:37.707Z,90.30
2023-04-11T01:08:42.482Z,90.40
2023-04-11T01:09:45.619Z,90.50
2023-04-11T01:10:47.843Z,90.60
2023-04-11T01:11:50.548Z,90.70
2023-04-11T01:12:52.982Z,90.90
2023-04-11T01:13:56.023Z,91.10
2023-04-11T01:14:59.882Z,91.20
2023-04-11T01:16:02.414Z,91.30
2023-04-11T01:17:04.818Z,91.40
2023-04-11T01:18:09.052Z,91.50
2023-04-11T01:19:11.359Z,91.60
2023-04-11T01:20:13.732Z,91.70
2023-04-11T01:21:17.394Z,91.80
2023-04-11T01:22:23.147Z,91.90
2023-04-11T01:23:27.538Z,92.00
2023-04-11T01:24:29.847Z,92.10
2023-04-11T01:25:32.061Z,92.10
2023-04-11T01:26:34.291Z,92.30
2023-04-11T01:27:37.814Z,92.50
2023-04-11T01:28:39.903Z,92.60
2023-04-11T01:29:42.001Z,92.60
2023-04-11T01:30:45.798Z,92.70
2023-04-11T01:33:05.098Z,92.90
2023-04-11T01:34:07.821Z,93.10
2023-04-11T01:35:12.295Z,93.20
2023-04-11T01:36:14.572Z,93.30
2023-04-11T01:37:16.913Z,93.30
2023-04-11T01:38:19.048Z,93.40
2023-04-11T01:39:22.528Z,93.50
2023-04-11T01:40:24.950Z,93.60
2023-04-11T01:41:27.753Z,93.60
2023-04-11T01:42:31.888Z,93.70
2023-04-11T01:43:34.215Z,93.80
2023-04-11T01:44:37.525Z,93.90
2023-04-11T01:45:40.650Z,93.90
2023-04-11T01:46:43.210Z,94.10
2023-04-11T01:47:45.448Z,94.10
2023-04-11T01:48:49.618Z,94.10
2023-04-11T01:49:53.722Z,94.20
2023-04-11T01:50:55.990Z,94.30
2023-04-11T01:51:58.127Z,94.40
2023-04-11T01:53:00.389Z,94.40
2023-04-11T01:54:02.708Z,94.50
2023-04-11T01:55:07.341Z,94.60
2023-04-11T01:56:10.570Z,94.70
2023-04-11T01:57:12.683Z,94.80
2023-04-11T01:58:14.840Z,94.80
2023-04-11T01:59:17.002Z,94.90
2023-04-11T02:00:20.342Z,95.00
2023-04-11T02:01:22.812Z,95.10
2023-04-11T02:02:26.059Z,95.20
2023-04-11T02:03:28.434Z,95.30
2023-04-11T02:04:30.753Z,95.30
2023-04-11T02:05:33.066Z,95.40
2023-04-11T02:06:35.184Z,95.40
2023-04-11T02:07:37.683Z,95.60
2023-04-11T02:08:42.882Z,95.70
2023-04-11T02:09:45.036Z,95.80
2023-04-11T02:10:48.545Z,95.90
2023-04-11T02:11:50.710Z,96.00
2023-04-11T02:12:52.830Z,96.10
2023-04-11T02:13:54.949Z,96.20
2023-04-11T02:14:57.413Z,96.30
2023-04-11T02:16:09.701Z,96.40
2023-04-11T02:17:12.587Z,96.50
2023-04-11T02:18:14.736Z,96.60
2023-04-11T02:19:16.889Z,96.60
2023-04-11T02:20:19.229Z,96.70
2023-04-11T02:21:21.483Z,96.80
2023-04-11T02:22:23.712Z,96.90
2023-04-11T02:23:25.837Z,96.90
2023-04-11T02:24:28.638Z,97.00
2023-04-11T02:25:31.009Z,97.10
2023-04-11T02:26:34.532Z,97.10
2023-04-11T02:27:36.983Z,97.20
2023-04-11T02:28:39.093Z,97.20
2023-04-11T02:29:41.226Z,97.20
2023-04-11T02:30:43.473Z,97.30
2023-04-11T02:31:48.124Z,97.40
2023-04-11T02:32:50.387Z,97.50
2023-04-11T02:33:52.635Z,97.60
2023-04-11T02:34:54.971Z,97.70
2023-04-11T02:35:57.174Z,97.80
2023-04-11T02:36:59.334Z,97.80
2023-04-11T02:38:01.644Z,97.80
2023-04-11T02:39:03.825Z,97.90
2023-04-11T02:40:08.119Z,98.00
2023-04-11T02:41:10.306Z,98.10
2023-04-11T02:42:14.069Z,98.10
2023-04-11T02:43:16.465Z,98.20
2023-04-11T02:44:19.570Z,98.30
2023-04-11T02:45:22.069Z,98.30
2023-04-11T02:46:24.331Z,98.40
2023-04-11T02:47:26.536Z,98.40
2023-04-11T02:48:28.661Z,98.50
2023-04-11T02:49:30.753Z,98.50
2023-04-11T02:50:32.858Z,98.60
2023-04-11T02:51:35.015Z,98.60
2023-04-11T02:52:39.348Z,98.70
2023-04-11T02:53:41.537Z,98.70
2023-04-11T02:54:43.701Z,98.80
2023-04-11T02:55:45.785Z,98.90
2023-04-11T02:56:47.937Z,98.90
2023-04-11T02:57:51.842Z,99.00
2023-04-11T02:58:54.320Z,99.10
2023-04-11T02:59:56.637Z,99.30
2023-04-11T03:00:58.980Z,99.40
2023-04-11T03:02:01.968Z,99.40
2023-04-11T03:03:06.558Z,99.50
2023-04-11T03:04:08.860Z,99.50
2023-04-11T03:05:11.026Z,99.60
2023-04-11T03:06:13.284Z,99.70
2023-04-11T03:07:15.453Z,99.80
2023-04-11T03:08:17.599Z,99.90
2023-04-11T03:09:20.119Z,99.90
2023-04-11T03:10:22.263Z,99.90
2023-04-11T03:11:24.376Z,99.90
2023-04-11T03:12:26.700Z,99.90
2023-04-11T03:13:30.447Z,99.90
2023-04-11T03:14:32.610Z,99.90
2023-04-11T03:15:34.990Z,99.90
2023-04-11T03:16:37.190Z,99.90
2023-04-11T03:17:39.286Z,99.90
2023-04-11T03:18:41.511Z,99.90
2023-04-11T03:19:45.700Z,99.90
2023-04-11T03:20:47.850Z,99.90
2023-04-11T03:21:49.963Z,99.90
2023-04-11T03:22:52.163Z,99.90
2023-04-11T03:23:54.446Z,99.90
2023-04-11T03:24:56.507Z,99.90
2023-04-11T03:25:58.694Z,99.90
2023-04-11T03:27:01.457Z,99.90
2023-04-11T03:28:03.737Z,99.90
2023-04-11T03:29:07.392Z,99.90
2023-04-11T03:30:10.450Z,99.90
2023-04-11T03:31:13.207Z,99.90
2023-04-11T03:32:15.580Z,99.90
2023-04-11T03:33:18.099Z,99.90
2023-04-11T03:34:20.328Z,99.90
2023-04-11T03:35:22.669Z,99.90
2023-04-11T03:36:26.727Z,99.90
2023-04-11T03:37:28.831Z,99.90
2023-04-11T03:38:31.183Z,99.90
2023-04-11T03:39:33.331Z,99.90
2023-04-11T03:40:35.834Z,99.90
2023-04-11T03:41:37.982Z,99.90
2023-04-11T03:42:40.167Z,99.90
2023-04-11T03:43:42.280Z,99.90
2023-04-11T03:44:45.798Z,99.90
2023-04-11T03:45:47.931Z,99.90
2023-04-11T03:46:50.066Z,99.90
2023-04-11T03:47:52.208Z,99.90
2023-04-11T03:48:54.503Z,99.90
2023-04-11T03:49:56.788Z,99.90
2023-04-11T03:50:58.910Z,99.90
2023-04-11T03:52:01.384Z,99.90
2023-04-11T03:53:03.699Z,99.90
2023-04-11T03:54:05.859Z,99.90
2023-04-11T03:55:08.714Z,99.90
2023-04-11T03:56:10.802Z,99.90
2023-04-11T03:57:13.005Z,99.90
2023-04-11T03:58:15.644Z,99.90
2023-04-11T03:59:17.774Z,99.90
2023-04-11T04:00:21.408Z,99.90
2023-04-11T04:01:23.696Z,99.90
2023-04-11T04:02:26.015Z,99.90
2023-04-11T04:03:30.704Z,99.90
2023-04-11T04:04:33.480Z,99.90
2023-04-11T04:05:35.828Z,99.90
2023-04-11T04:06:37.903Z,99.90
2023-04-11T04:07:40.049Z,99.90
2023-04-11T04:08:42.159Z,99.90
2023-04-11T04:09:44.321Z,99.90
2023-04-11T04:10:47.126Z,99.90
2023-04-11T04:11:49.196Z,99.90
2023-04-11T04:12:52.037Z,99.90
2023-04-11T04:13:54.491Z,99.90
2023-04-11T04:14:56.773Z,99.90
2023-04-11T04:16:02.689Z,99.90
2023-04-11T04:17:05.762Z,99.90
2023-04-11T04:18:07.960Z,99.90
2023-04-11T04:19:10.384Z,99.90
2023-04-11T04:20:12.851Z,99.90
2023-04-11T04:21:15.776Z,99.90
2023-04-11T04:22:18.397Z,99.90
2023-04-11T04:23:20.537Z,99.90
2023-04-11T04:24:26.011Z,99.90
2023-04-11T04:25:28.166Z,99.90
2023-04-11T04:26:31.246Z,99.90
2023-04-11T04:27:33.499Z,99.90
2023-04-11T04:28:35.669Z,99.90
2023-04-11T04:29:46.535Z,99.90
2023-04-11T04:30:54.387Z,99.90
2023-04-11T04:31:57.950Z,99.90
2023-04-11T04:33:00.808Z,99.90
2023-04-11T04:34:08.628Z,99.90
2023-04-11T04:35:11.824Z,99.90
2023-04-11T04:36:13.995Z,99.90
2023-04-11T04:37:21.807Z,99.90
2023-04-11T04:38:26.094Z,99.90
2023-04-11T04:39:30.142Z,99.90
2023-04-11T04:40:32.815Z,99.90
2023-04-11T04:41:36.415Z,99.90
2023-04-11T04:42:41.457Z,99.90
2023-04-11T04:43:44.089Z,99.90
2023-04-11T04:44:46.164Z,99.90
2023-04-11T04:45:48.366Z,99.90
2023-04-11T04:46:53.316Z,99.90
2023-04-11T04:47:56.850Z,99.90
2023-04-11T04:49:00.910Z,99.90
2023-04-11T04:50:04.706Z,99.90
2023-04-11T04:51:07.854Z,99.90
2023-04-11T04:52:10.325Z,99.90
2023-04-11T04:53:12.508Z,99.90
2023-04-11T04:54:15.994Z,99.90
2023-04-11T04:55:18.136Z,99.90
2023-04-11T04:56:20.449Z,99.90
2023-04-11T04:57:22.531Z,99.90
2023-04-11T04:58:24.785Z,99.90
2023-04-11T04:59:27.163Z,99.90
2023-04-11T05:00:29.305Z,99.90
2023-04-11T05:01:33.041Z,99.90
2023-04-11T05:02:37.944Z,99.90
2023-04-11T05:03:41.691Z,99.90
2023-04-11T05:04:44.995Z,99.90
2023-04-11T05:05:47.173Z,99.90
2023-04-11T05:06:54.260Z,99.90
2023-04-11T05:07:56.393Z,99.90
2023-04-11T05:09:01.826Z,99.90
2023-04-11T05:10:04.539Z,99.90
2023-04-11T05:11:06.676Z,99.90
2023-04-11T05:12:11.894Z,99.90
2023-04-11T05:13:14.056Z,99.90
2023-04-11T05:14:16.413Z,99.90
2023-04-11T05:15:18.662Z,99.90
2023-04-11T05:16:22.083Z,99.90
2023-04-11T05:17:25.487Z,99.90
2023-04-11T05:18:29.529Z,99.90
2023-04-11T05:19:33.264Z,99.90
2023-04-11T05:20:35.469Z,99.90
2023-04-11T05:21:38.566Z,99.90
2023-04-11T05:22:42.231Z,99.90
2023-04-11T05:23:44.401Z,99.90
2023-04-11T05:24:46.497Z,99.90
2023-04-11T05:25:48.560Z,99.90
2023-04-11T05:26:50.718Z,99.90
2023-04-11T05:27:52.866Z,99.90
2023-04-11T05:28:55.044Z,99.90
2023-04-11T05:29:57.118Z,99.90
2023-04-11T05:30:59.326Z,99.90
2023-04-11T05:32:01.574Z,99.90
2023-04-11T05:33:03.992Z,99.90
2023-04-11T05:34:06.268Z,99.90
2023-04-11T05:35:10.707Z,99.90
2023-04-11T05:36:14.249Z,99.90
2023-04-11T05:37:16.811Z,99.90
2023-04-11T05:38:20.891Z,99.90
2023-04-11T05:39:23.258Z,99.90
2023-04-11T05:40:25.491Z,99.90
2023-04-11T05:41:27.632Z,99.90
2023-04-11T05:42:29.816Z,99.90
2023-04-11T05:43:31.940Z,99.90
2023-04-11T05:44:37.097Z,99.90
2023-04-11T05:45:39.891Z,99.90
2023-04-11T05:46:44.446Z,99.90
2023-04-11T05:47:46.595Z,99.90
2023-04-11T05:48:48.796Z,99.90
2023-04-11T05:49:51.058Z,99.90
2023-04-11T05:50:54.651Z,99.90
2023-04-11T05:51:56.768Z,99.90
2023-04-11T05:52:59.912Z,99.90
2023-04-11T05:54:02.026Z,99.90
2023-04-11T05:55:04.733Z,99.90
2023-04-11T05:56:07.864Z,99.90
2023-04-11T05:57:09.941Z,99.90
2023-04-11T05:58:12.110Z,99.90
2023-04-11T05:59:14.244Z,99.90
2023-04-11T06:00:17.437Z,99.90
2023-04-11T06:01:19.559Z,99.90
2023-04-11T06:02:22.311Z,99.90
2023-04-11T06:03:24.681Z,99.90
2023-04-11T06:04:27.025Z,99.90
2023-04-11T06:05:31.570Z,99.90
2023-04-11T06:06:36.153Z,99.90
2023-04-11T06:07:39.402Z,99.90
2023-04-11T06:08:41.653Z,99.90
2023-04-11T06:09:45.561Z,99.90
2023-04-11T06:10:47.658Z,99.90
2023-04-11T06:11:49.823Z,99.90
2023-04-11T06:12:52.089Z,99.90
2023-04-11T06:13:54.303Z,99.90
2023-04-11T06:14:56.576Z,99.90
2023-04-11T06:15:58.970Z,99.90
2023-04-11T06:17:01.147Z,99.90
2023-04-11T06:18:03.595Z,99.90
2023-04-11T06:19:05.857Z,99.90
2023-04-11T06:20:08.876Z,99.90
2023-04-11T06:21:10.941Z,99.90
2023-04-11T06:22:14.494Z,99.90
2023-04-11T06:23:16.637Z,99.90
2023-04-11T06:24:18.830Z,99.90
2023-04-11T06:25:21.531Z,99.90
2023-04-11T06:26:23.719Z,99.90
2023-04-11T06:27:26.637Z,99.90
2023-04-11T06:28:28.948Z,99.90
2023-04-11T06:29:33.346Z,99.90
2023-04-11T06:30:35.459Z,99.90
2023-04-11T06:31:37.781Z,99.90
2023-04-11T06:32:40.054Z,99.90
2023-04-11T06:33:42.190Z,99.90
2023-04-11T06:34:44.304Z,99.90
2023-04-11T06:35:46.437Z,99.90
2023-04-11T06:36:49.980Z,99.90
2023-04-11T06:37:53.570Z,99.70
2023-04-11T06:38:55.811Z,99.50
2023-04-11T06:39:59.200Z,99.20
2023-04-11T06:41:01.290Z,99.00
2023-04-11T06:42:03.877Z,98.80
2023-04-11T06:43:06.058Z,98.60
2023-04-11T06:44:08.189Z,98.30
2023-04-11T06:45:12.040Z,98.10
2023-04-11T06:46:14.289Z,97.70
2023-04-11T06:47:16.744Z,97.40
2023-04-11T06:48:20.446Z,97.20
2023-04-11T06:49:23.383Z,97.00
2023-04-11T06:50:25.644Z,96.70
2023-04-11T06:51:27.727Z,96.40
2023-04-11T06:52:30.581Z,96.10
2023-04-11T06:53:34.060Z,95.90
2023-04-11T06:54:36.268Z,95.80
2023-04-11T06:55:38.379Z,95.60
2023-04-11T06:56:40.567Z,95.50
2023-04-11T06:57:44.000Z,95.40
2023-04-11T06:58:46.200Z,95.10
2023-04-11T06:59:48.305Z,94.90
2023-04-11T07:00:51.517Z,94.70
2023-04-11T07:01:53.725Z,94.50
2023-04-11T07:02:56.053Z,94.30
2023-04-11T07:03:59.256Z,94.00
2023-04-11T07:05:06.660Z,93.90
2023-04-11T07:06:09.149Z,93.50
2023-04-11T07:07:11.328Z,93.30
2023-04-11T07:08:13.450Z,93.10
2023-04-11T07:09:17.016Z,92.90
2023-04-11T07:10:19.291Z,92.60
2023-04-11T07:11:21.842Z,92.50
2023-04-11T07:12:23.987Z,92.40
2023-04-11T07:13:26.102Z,92.30
2023-04-11T07:14:28.321Z,92.10
2023-04-11T07:15:30.425Z,91.90
2023-04-11T07:16:32.956Z,91.70
2023-04-11T07:17:35.657Z,91.60
2023-04-11T07:18:37.952Z,91.40
2023-04-11T07:19:40.051Z,91.30
2023-04-11T07:20:42.344Z,91.20
2023-04-11T07:21:44.465Z,90.90
2023-04-11T07:22:46.573Z,90.60
2023-04-11T07:23:48.918Z,90.50
2023-04-11T07:24:55.260Z,90.20
2023-04-11T07:25:57.813Z,90.00
2023-04-11T07:27:01.739Z,89.60
2023-04-11T07:28:08.563Z,89.30
2023-04-11T07:29:13.113Z,89.00
2023-04-11T07:30:17.242Z,88.90
2023-04-11T07:31:21.738Z,88.10
2023-04-11T07:32:24.760Z,87.40
2023-04-11T07:33:27.327Z,87.10
2023-04-11T07:34:29.415Z,86.90
2023-04-11T07:35:33.529Z,86.80
2023-04-11T07:36:35.803Z,86.70
2023-04-11T07:37:38.263Z,86.10
2023-04-11T07:38:41.300Z,85.80
2023-04-11T07:39:43.399Z,85.70
2023-04-11T07:40:46.897Z,85.60
2023-04-11T07:41:49.001Z,85.20
2023-04-11T07:42:51.219Z,84.80
2023-04-11T07:43:53.404Z,84.50
2023-04-11T07:44:55.590Z,84.30
2023-04-11T07:45:58.784Z,84.00
2023-04-11T07:47:01.066Z,84.00
2023-04-11T07:48:03.196Z,83.70
2023-04-11T07:49:05.480Z,83.50
2023-04-11T07:50:07.811Z,83.60
2023-04-11T07:51:09.960Z,83.60
2023-04-11T07:52:14.194Z,83.50
2023-04-11T07:53:16.784Z,82.40
2023-04-11T07:54:18.930Z,81.30
2023-04-11T07:55:21.144Z,81.00
2023-04-11T07:56:24.601Z,81.10
2023-04-11T07:57:26.717Z,81.30
2023-04-11T07:58:28.889Z,81.20
2023-04-11T07:59:30.978Z,80.60
2023-04-11T08:00:33.830Z,80.30
2023-04-11T08:01:36.113Z,80.20
2023-04-11T08:02:38.412Z,80.20
2023-04-11T08:03:40.781Z,80.30
2023-04-11T08:04:45.902Z,80.00
2023-04-11T08:05:48.028Z,80.10
2023-04-11T08:06:50.145Z,80.20
2023-04-11T08:07:54.674Z,80.10
2023-04-11T08:09:00.907Z,80.20
2023-04-11T08:10:05.657Z,80.10
2023-04-11T08:11:08.240Z,80.00
2023-04-11T08:12:11.848Z,80.00
2023-04-11T08:13:13.990Z,80.00
2023-04-11T08:14:16.149Z,79.40
2023-04-11T08:15:20.546Z,79.30
2023-04-11T08:16:22.735Z,79.50
2023-04-11T08:17:29.187Z,79.80
2023-04-11T08:18:32.943Z,79.70
2023-04-11T08:19:35.117Z,79.60
2023-04-11T08:20:37.334Z,79.80
2023-04-11T08:21:39.419Z,80.00
2023-04-11T08:22:44.515Z,80.00
2023-04-11T08:23:47.592Z,79.80
2023-04-11T08:24:49.665Z,79.40
2023-04-11T08:25:51.760Z,79.40
2023-04-11T08:26:53.857Z,79.10
2023-04-11T08:27:57.357Z,78.80
2023-04-11T08:28:59.461Z,78.70
2023-04-11T08:30:01.956Z,78.80
2023-04-11T08:31:05.696Z,78.50
2023-04-11T08:32:07.824Z,78.60
2023-04-11T08:33:10.508Z,77.80
2023-04-11T08:34:12.976Z,78.00
2023-04-11T08:35:15.090Z,77.90
2023-04-11T08:36:17.166Z,77.70
2023-04-11T08:37:19.363Z,77.60
2023-04-11T08:38:21.489Z,77.20
2023-04-11T08:39:23.611Z,76.80
2023-04-11T08:40:26.972Z,76.10
2023-04-11T08:41:33.056Z,75.30
2023-04-11T08:42:35.800Z,75.10
2023-04-11T08:43:44.286Z,75.00
2023-04-11T08:44:53.198Z,74.80
2023-04-11T08:45:55.496Z,74.70
2023-04-11T08:47:00.021Z,74.40
2023-04-11T08:48:02.600Z,74.60
2023-04-11T08:49:04.850Z,74.40
2023-04-11T08:50:08.381Z,74.00
2023-04-11T08:51:12.604Z,72.70
2023-04-11T08:52:15.713Z,72.70
2023-04-11T08:53:22.787Z,72.60
2023-04-11T08:54:25.061Z,72.10
2023-04-11T08:55:27.172Z,71.90
2023-04-11T08:56:29.339Z,71.80
2023-04-11T08:57:31.814Z,71.50
2023-04-11T08:58:34.365Z,71.50
2023-04-11T08:59:48.329Z,71.60
2023-04-11T09:00:50.558Z,71.30
2023-04-11T09:01:52.904Z,70.90
2023-04-11T09:02:59.480Z,70.80
2023-04-11T09:04:05.452Z,69.90
2023-04-11T09:05:08.580Z,69.50
2023-04-11T09:06:11.579Z,69.10
2023-04-11T09:07:13.985Z,68.90
2023-04-11T09:08:17.197Z,68.40
2023-04-11T09:09:30.332Z,67.60
2023-04-11T09:10:33.043Z,67.10
2023-04-11T09:11:53.102Z,67.20
2023-04-11T09:12:56.013Z,67.20
2023-04-11T09:14:07.769Z,66.90
2023-04-11T09:15:20.183Z,66.90
2023-04-11T09:16:22.868Z,66.70
2023-04-11T09:17:25.100Z,66.10
2023-04-11T09:18:34.111Z,65.90
2023-04-11T09:19:36.356Z,65.80
2023-04-11T09:20:38.631Z,65.90
2023-04-11T09:21:50.028Z,65.60
2023-04-11T09:22:53.505Z,65.30
2023-04-11T09:24:13.382Z,65.50
2023-04-11T09:25:15.577Z,65.40
2023-04-11T09:26:26.936Z,65.50
2023-04-11T09:27:29.022Z,65.10
2023-04-11T09:28:40.640Z,64.60
2023-04-11T09:29:45.559Z,64.50
2023-04-11T09:30:52.276Z,64.50
2023-04-11T09:31:54.734Z,64.60
2023-04-11T09:32:56.941Z,64.60
2023-04-11T09:34:00.210Z,64.20
2023-04-11T09:35:09.395Z,64.10
2023-04-11T09:36:30.645Z,64.40
2023-04-11T09:37:42.004Z,64.60
2023-04-11T09:38:46.982Z,63.70
2023-04-11T09:39:58.888Z,64.40
2023-04-11T09:41:03.089Z,64.30
2023-04-11T09:42:24.208Z,64.10
2023-04-11T09:43:26.668Z,64.20
2023-04-11T09:44:38.583Z,63.70
2023-04-11T09:45:53.623Z,63.60
2023-04-11T09:46:58.240Z,63.30
2023-04-11T09:48:00.563Z,62.60
2023-04-11T09:49:03.470Z,62.30
2023-04-11T09:50:07.278Z,62.80
2023-04-11T09:51:09.766Z,62.80
2023-04-11T09:52:12.485Z,62.20
2023-04-11T09:53:14.922Z,61.70
2023-04-11T09:54:18.273Z,60.80
2023-04-11T09:55:22.633Z,60.40
2023-04-11T09:56:26.641Z,59.90
2023-04-11T09:57:31.451Z,59.70
2023-04-11T09:58:36.580Z,59.70
2023-04-11T09:59:40.577Z,59.90
2023-04-11T10:00:43.700Z,60.00
2023-04-11T10:01:47.183Z,59.70
2023-04-11T10:02:55.014Z,59.10
2023-04-11T10:03:58.290Z,59.00
2023-04-11T10:05:04.359Z,59.20
2023-04-11T10:06:08.539Z,59.10
2023-04-11T10:07:14.565Z,59.00
2023-04-11T10:08:25.131Z,58.90
2023-04-11T10:09:27.598Z,59.10
2023-04-11T10:10:30.391Z,59.00
2023-04-11T10:11:32.851Z,58.70
2023-04-11T10:12:35.503Z,58.00
2023-04-11T10:13:39.472Z,57.70
2023-04-11T10:14:45.519Z,57.60
2023-04-11T10:16:06.264Z,57.30
2023-04-11T10:17:18.607Z,56.30
2023-04-11T10:18:24.573Z,56.20
2023-04-11T10:19:27.705Z,56.40
2023-04-11T10:20:46.936Z,56.60
2023-04-11T10:21:49.041Z,56.90
2023-04-11T10:23:01.154Z,56.80
2023-04-11T10:24:11.859Z,57.00
2023-04-11T10:25:19.338Z,56.80
2023-04-11T10:26:21.469Z,56.40
2023-04-11T10:27:50.084Z,56.10
2023-04-11T10:28:54.234Z,55.70
2023-04-11T10:29:56.634Z,55.40
2023-04-11T10:31:02.161Z,54.90
2023-04-11T10:32:11.239Z,55.10
2023-04-11T10:33:15.729Z,54.60
2023-04-11T10:34:19.246Z,54.60
2023-04-11T10:35:22.890Z,53.70
2023-04-11T10:36:25.096Z,53.70
2023-04-11T10:37:32.888Z,53.20
2023-04-11T10:38:50.014Z,52.40
2023-04-11T10:40:14.826Z,52.10
2023-04-11T10:41:27.028Z,51.90
2023-04-11T10:42:29.687Z,50.80
2023-04-11T10:43:31.877Z,50.30
2023-04-11T10:44:34.125Z,50.30
2023-04-11T10:45:39.969Z,50.50
2023-04-11T10:46:49.639Z,50.50
2023-04-11T10:48:08.653Z,50.20
2023-04-11T10:49:10.866Z,49.50
2023-04-11T10:50:41.169Z,49.80
2023-04-11T10:51:43.407Z,49.60
2023-04-11T10:52:45.622Z,49.20
2023-04-11T10:53:48.118Z,48.50
2023-04-11T10:54:51.783Z,48.10
2023-04-11T10:55:54.221Z,47.90
2023-04-11T10:56:56.953Z,47.80
2023-04-11T10:58:08.363Z,47.20
2023-04-11T10:59:47.958Z,45.20
2023-04-11T11:01:31.321Z,43.00
2023-04-11T11:02:41.445Z,39.50
2023-04-11T11:03:57.160Z,37.30
2023-04-11T11:05:01.835Z,35.90
2023-04-11T11:06:07.349Z,34.30
2023-04-11T11:07:17.480Z,33.90
2023-04-11T11:08:27.300Z,33.80
2023-04-11T11:09:30.577Z,33.20
2023-04-11T11:10:40.504Z,33.70
2023-04-11T11:11:42.821Z,34.90
2023-04-11T11:12:57.284Z,35.70
2023-04-11T11:14:01.149Z,35.40
2023-04-11T11:15:13.603Z,34.10
2023-04-11T11:16:17.656Z,33.10
2023-04-11T11:17:19.996Z,33.00
2023-04-11T11:18:22.322Z,34.10
2023-04-11T11:19:24.606Z,34.10
2023-04-11T11:20:26.929Z,33.60
2023-04-11T11:21:34.226Z,33.10
2023-04-11T11:22:36.309Z,34.20
2023-04-11T11:23:38.501Z,34.70
2023-04-11T11:24:40.793Z,34.10
2023-04-11T11:25:55.863Z,33.50
2023-04-11T11:26:59.006Z,33.30
2023-04-11T11:28:03.474Z,32.50
2023-04-11T11:29:05.929Z,31.90
2023-04-11T11:30:11.890Z,31.90
2023-04-11T11:31:14.101Z,32.80
2023-04-11T11:32:22.250Z,34.00
2023-04-11T11:33:26.695Z,34.70
2023-04-11T11:34:30.059Z,34.50
2023-04-11T11:35:32.205Z,34.00
2023-04-11T11:36:39.290Z,34.00
2023-04-11T11:37:41.951Z,35.10
2023-04-11T11:38:44.807Z,35.80
2023-04-11T11:39:48.295Z,36.30
2023-04-11T11:40:50.793Z,36.70
2023-04-11T11:41:53.642Z,35.40
2023-04-11T11:42:56.129Z,33.20
2023-04-11T11:43:59.675Z,31.80
2023-04-11T11:45:14.594Z,30.80
2023-04-11T11:46:18.236Z,30.00
2023-04-11T11:47:20.513Z,29.80
2023-04-11T11:48:23.307Z,29.50
2023-04-11T11:49:25.650Z,29.10
2023-04-11T11:50:29.236Z,29.10
2023-04-11T11:51:42.918Z,29.10
2023-04-11T11:52:45.730Z,28.90
2023-04-11T11:54:03.738Z,28.30
2023-04-11T11:55:11.378Z,28.50
2023-04-11T11:56:14.779Z,28.80
2023-04-11T11:57:22.913Z,29.50
2023-04-11T11:58:25.197Z,30.30
2023-04-11T11:59:28.032Z,31.30
2023-04-11T12:00:31.796Z,31.90
2023-04-11T12:01:34.964Z,31.30
2023-04-11T12:02:38.293Z,30.50
2023-04-11T12:03:40.919Z,29.70
2023-04-11T12:04:43.372Z,29.20
2023-04-11T12:05:47.738Z,29.60
2023-04-11T12:06:51.819Z,30.40
2023-04-11T12:07:54.931Z,31.70
2023-04-11T12:09:02.348Z,31.70
2023-04-11T12:10:09.405Z,30.70
2023-04-11T12:11:14.843Z,29.60
2023-04-11T12:12:19.902Z,29.10
2023-04-11T12:13:25.388Z,29.20
2023-04-11T12:14:29.688Z,29.40
2023-04-11T12:15:35.879Z,29.50
2023-04-11T12:16:38.337Z,29.30
2023-04-11T12:17:41.106Z,28.90
2023-04-11T12:18:44.264Z,28.40
2023-04-11T12:19:46.359Z,29.00
2023-04-11T12:20:48.825Z,29.50
2023-04-11T12:21:53.125Z,29.90
2023-04-11T12:22:56.255Z,29.90
2023-04-11T12:23:58.666Z,30.00
2023-04-11T12:25:08.760Z,30.20
2023-04-11T12:26:11.361Z,30.30
2023-04-11T12:27:13.546Z,30.60
2023-04-11T12:28:16.448Z,30.50
2023-04-11T12:29:18.612Z,30.40
2023-04-11T12:30:20.751Z,30.50
2023-04-11T12:31:23.073Z,30.50
2023-04-11T12:32:27.476Z,30.90
2023-04-11T12:33:29.651Z,31.60
2023-04-11T12:34:31.805Z,31.80
2023-04-11T12:35:33.986Z,31.90
2023-04-11T12:36:36.935Z,31.60
2023-04-11T12:37:41.255Z,31.20
2023-04-11T12:38:43.434Z,31.00
2023-04-11T12:39:45.534Z,31.20
2023-04-11T12:40:47.680Z,31.70
2023-04-11T12:41:49.788Z,32.40
2023-04-11T12:42:56.339Z,33.10
2023-04-11T12:44:02.223Z,33.90
2023-04-11T12:45:05.809Z,34.50
2023-04-11T12:46:08.128Z,34.90
2023-04-11T12:47:10.681Z,34.90
2023-04-11T12:48:13.006Z,35.30
2023-04-11T12:49:15.103Z,35.50
2023-04-11T12:50:17.518Z,35.40
2023-04-11T12:51:19.685Z,34.60
2023-04-11T12:52:22.533Z,34.20
2023-04-11T12:53:26.034Z,33.90
2023-04-11T12:54:28.334Z,33.90
2023-04-11T12:55:30.823Z,34.10
2023-04-11T12:56:33.021Z,33.10
2023-04-11T12:57:35.771Z,31.70
2023-04-11T12:58:37.925Z,30.50
2023-04-11T12:59:40.388Z,29.80
2023-04-11T13:00:42.722Z,29.20
2023-04-11T13:01:44.916Z,29.50
2023-04-11T13:02:48.683Z,30.10
2023-04-11T13:03:51.308Z,30.80
2023-04-11T13:04:54.060Z,32.20
2023-04-11T13:05:56.394Z,32.80
2023-04-11T13:07:01.481Z,32.10
2023-04-11T13:08:04.269Z,31.00
2023-04-11T13:09:07.973Z,30.20
2023-04-11T13:10:10.607Z,29.60
2023-04-11T13:11:12.773Z,29.10
2023-04-11T13:12:15.003Z,28.70
2023-04-11T13:13:18.817Z,28.30
2023-04-11T13:14:21.151Z,28.00
2023-04-11T13:15:23.285Z,28.00
2023-04-11T13:16:25.621Z,28.00
2023-04-11T13:17:27.793Z,27.80
2023-04-11T13:18:32.205Z,27.60
2023-04-11T13:19:34.369Z,27.40
2023-04-11T13:20:36.602Z,27.30
2023-04-11T13:21:38.702Z,27.20
2023-04-11T13:22:41.926Z,26.90
2023-04-11T13:23:44.220Z,26.80
2023-04-11T13:24:47.829Z,26.70
2023-04-11T13:25:50.107Z,26.60
2023-04-11T13:26:52.317Z,26.70
2023-04-11T13:27:55.771Z,26.70
2023-04-11T13:28:58.176Z,26.60
2023-04-11T13:30:00.515Z,26.30
2023-04-11T13:31:02.711Z,26.40
2023-04-11T13:32:04.990Z,26.50
2023-04-11T13:33:07.203Z,26.40
2023-04-11T13:34:09.357Z,26.40
2023-04-11T13:35:11.489Z,25.90
2023-04-11T13:36:13.650Z,25.70
2023-04-11T13:37:15.896Z,25.70
2023-04-11T13:38:18.119Z,25.50
2023-04-11T13:39:20.222Z,25.40
2023-04-11T13:40:23.684Z,25.40
2023-04-11T13:41:26.084Z,25.60
2023-04-11T13:42:28.223Z,25.60